Time;durP1;ratioP1;P1;durP2;ratioP2;P2;SDS_P1;SDS_P2;PMS_P1;PMS_P2;Temp;Humidity;BMP_temperature;BMP_pressure;BME280_temperature;BME280_humidity;BME280_pressure;Samples;Min_cycle;Max_cycle;Signal;HPM_P1;HPM_P2
2022/01/19 00:00:50;;;;;;;33.53;14.82;;;5.40;99.90;;;;;;5137921;27;20479;-72
2022/01/19 00:03:16;;;;;;;31.73;13.70;;;5.30;99.90;;;;;;5137515;27;20043;-72
2022/01/19 00:05:42;;;;;;;32.15;13.52;;;5.70;99.90;;;;;;5137498;27;20042;-72
2022/01/19 00:08:08;;;;;;;28.05;14.77;;;5.10;99.90;;;;;;5138110;27;20054;-72
2022/01/19 00:10:34;;;;;;;31.55;15.10;;;6.20;99.90;;;;;;5137529;27;20043;-72
2022/01/19 00:13:00;;;;;;;30.73;14.80;;;5.20;99.90;;;;;;5137414;27;20043;-72
2022/01/19 00:15:27;;;;;;;26.80;13.77;;;5.70;99.90;;;;;;5137421;27;20046;-71
2022/01/19 00:17:57;;;;;;;29.70;14.18;;;5.40;99.90;;;;;;5137649;27;20127;-71
2022/01/19 00:20:25;;;;;;;30.48;14.85;;;5.60;99.90;;;;;;5137263;27;20066;-72
2022/01/19 00:22:52;;;;;;;32.03;15.50;;;6.00;99.90;;;;;;5118363;27;20096;-72
2022/01/19 00:25:18;;;;;;;33.92;15.80;;;5.40;99.90;;;;;;5137242;27;20035;-72
2022/01/19 00:27:44;;;;;;;37.20;16.83;;;5.60;99.90;;;;;;5137182;27;20055;-71
2022/01/19 00:30:10;;;;;;;33.22;16.05;;;5.40;99.90;;;;;;5138264;27;20147;-71
2022/01/19 00:32:36;;;;;;;35.63;14.40;;;5.00;99.90;;;;;;5137003;27;20138;-71
2022/01/19 00:35:04;;;;;;;34.67;15.02;;;5.50;99.90;;;;;;5137068;27;20122;-71
2022/01/19 00:37:29;;;;;;;37.88;15.82;;;5.30;99.90;;;;;;5137839;27;20047;-71
2022/01/19 00:39:55;;;;;;;34.05;15.48;;;5.80;99.90;;;;;;5136976;27;20482;-72
2022/01/19 00:42:21;;;;;;;35.38;16.60;;;5.80;99.90;;;;;;5136852;27;20086;-71
2022/01/19 00:44:47;;;;;;;39.10;16.65;;;5.50;99.90;;;;;;5136810;27;20092;-71
2022/01/19 00:47:14;;;;;;;38.13;16.77;;;5.80;99.90;;;;;;5136816;27;20039;-71
2022/01/19 00:49:42;;;;;;;43.67;18.13;;;6.00;99.90;;;;;;5136753;27;20054;-71
2022/01/19 00:52:11;;;;;;;43.85;17.85;;;5.50;99.90;;;;;;5118620;27;20173;-71
2022/01/19 00:54:38;;;;;;;42.28;18.38;;;5.60;99.90;;;;;;5136430;27;20491;-72
2022/01/19 00:57:04;;;;;;;44.47;18.98;;;5.40;99.90;;;;;;5136937;27;20039;-71
2022/01/19 00:59:29;;;;;;;43.22;17.23;;;5.40;99.90;;;;;;5136834;27;20475;-71
2022/01/19 01:01:55;;;;;;;41.00;18.48;;;5.70;99.90;;;;;;5101262;27;20132;-71
2022/01/19 01:04:21;;;;;;;47.70;18.80;;;5.40;99.90;;;;;;5136385;27;20550;-71
2022/01/19 01:06:47;;;;;;;42.80;18.83;;;5.50;99.90;;;;;;5137255;27;20043;-72
2022/01/19 01:09:12;;;;;;;41.65;19.25;;;5.50;99.90;;;;;;5136929;27;20035;-72
2022/01/19 01:11:47;;;;;;;41.67;18.05;;;5.20;99.90;;;;;;5136265;27;20129;-72
2022/01/19 01:16:58;;;;;;;50.15;21.05;;;5.50;99.90;;;;;;5136248;27;20047;-71
2022/01/19 01:19:24;;;;;;;52.35;19.85;;;6.00;99.90;;;;;;5135864;27;20063;-71
2022/01/19 01:21:50;;;;;;;49.08;19.55;;;5.90;99.90;;;;;;5136209;27;20039;-71
2022/01/19 01:24:15;;;;;;;50.95;19.98;;;5.50;99.90;;;;;;5117786;27;20047;-71
2022/01/19 01:26:41;;;;;;;47.78;19.92;;;5.40;99.90;;;;;;5118479;27;20047;-71
2022/01/19 01:29:08;;;;;;;49.20;18.95;;;5.80;99.90;;;;;;5136009;27;20043;-71
2022/01/19 01:31:33;;;;;;;41.78;18.48;;;5.60;99.90;;;;;;5135903;27;20498;-72
2022/01/19 01:33:59;;;;;;;44.45;19.83;;;5.60;99.90;;;;;;5117735;27;20050;-71
2022/01/19 01:36:25;;;;;;;45.33;17.85;;;5.60;99.90;;;;;;5135827;27;20047;-71
2022/01/19 01:38:51;;;;;;;40.15;16.10;;;6.10;99.90;;;;;;5135765;27;20130;-71
2022/01/19 01:41:16;;;;;;;42.92;16.30;;;5.30;99.90;;;;;;5135751;27;20051;-71
2022/01/19 01:43:43;;;;;;;36.20;16.45;;;5.40;99.90;;;;;;5135702;27;20047;-72
2022/01/19 01:46:19;;;;;;;41.63;16.67;;;5.30;99.90;;;;;;5117244;27;20039;-72
2022/01/19 01:48:46;;;;;;;37.83;15.30;;;5.90;99.90;;;;;;5119673;27;20066;-70
2022/01/19 01:53:59;;;;;;;31.10;13.77;;;5.80;99.90;;;;;;5135550;27;20077;-72
2022/01/19 01:56:25;;;;;;;37.05;15.02;;;5.60;99.90;;;;;;5135486;27;20082;-72
2022/01/19 01:58:51;;;;;;;32.67;14.50;;;5.80;99.90;;;;;;5117334;27;20054;-71
2022/01/19 02:01:17;;;;;;;33.28;14.48;;;5.30;99.90;;;;;;5135339;27;20047;-70
2022/01/19 02:03:45;;;;;;;33.72;15.10;;;5.60;99.90;;;;;;5135889;27;20051;-72
2022/01/19 02:08:51;;;;;;;32.95;14.40;;;5.70;99.90;;;;;;5117456;27;20456;-71
2022/01/19 02:22:51;;;;;;;36.53;14.02;;;5.60;99.90;;;;;;5135632;27;20082;-71
2022/01/19 02:25:18;;;;;;;33.47;14.30;;;6.00;99.90;;;;;;5134957;27;20451;-72
2022/01/19 02:31:05;;;;;;;26.60;12.77;;;5.40;99.90;;;;;;5134967;27;20047;-72
2022/01/19 02:41:29;;;;;;;30.77;12.40;;;5.40;99.90;;;;;;5135075;27;20051;-72
2022/01/19 02:43:56;;;;;;;29.02;12.63;;;5.60;99.90;;;;;;5134702;27;20380;-72
2022/01/19 02:46:41;;;;;;;33.85;13.00;;;5.30;99.90;;;;;;5116873;28;20061;-71
2022/01/19 02:49:16;;;;;;;30.55;11.68;;;6.00;99.90;;;;;;5117522;28;20539;-72
2022/01/19 02:51:44;;;;;;;34.78;13.32;;;5.10;99.90;;;;;;5134727;28;20086;-71
2022/01/19 02:54:22;;;;;;;27.75;12.30;;;5.40;99.90;;;;;;5134723;28;20055;-71
2022/01/19 02:56:52;;;;;;;33.53;13.07;;;5.50;99.90;;;;;;5134657;28;20141;-72
2022/01/19 03:09:46;;;;;;;30.15;13.32;;;5.80;99.90;;;;;;5134532;28;20051;-72
2022/01/19 03:12:12;;;;;;;32.28;13.40;;;5.60;99.90;;;;;;5116109;28;20039;-72
2022/01/19 03:14:38;;;;;;;30.80;13.50;;;5.30;99.90;;;;;;5134455;28;20035;-71
2022/01/19 03:17:06;;;;;;;30.88;13.50;;;5.60;99.90;;;;;;5134979;28;20051;-72
2022/01/19 03:19:33;;;;;;;30.85;13.68;;;5.40;99.90;;;;;;5134003;28;20055;-71
2022/01/19 03:21:59;;;;;;;28.73;13.52;;;6.10;99.90;;;;;;5134432;28;20084;-72
2022/01/19 03:24:25;;;;;;;30.52;14.43;;;5.40;99.90;;;;;;5134301;28;20043;-72
2022/01/19 03:26:51;;;;;;;33.45;13.52;;;5.30;99.90;;;;;;5135186;28;20109;-72
2022/01/19 03:29:17;;;;;;;33.47;13.60;;;5.50;99.90;;;;;;5134353;28;20483;-72
2022/01/19 03:31:43;;;;;;;28.30;13.40;;;5.30;99.90;;;;;;5115934;28;20050;-72
2022/01/19 03:34:08;;;;;;;30.15;14.85;;;5.50;99.90;;;;;;5134830;28;20047;-71
2022/01/19 03:36:35;;;;;;;34.13;14.68;;;6.00;99.90;;;;;;5134548;28;20104;-71
2022/01/19 03:39:01;;;;;;;35.70;15.27;;;5.40;99.90;;;;;;5134251;28;20122;-71
2022/01/19 03:41:27;;;;;;;32.10;14.60;;;5.40;99.90;;;;;;5134770;28;20167;-71
2022/01/19 03:43:52;;;;;;;34.20;14.15;;;5.20;99.90;;;;;;5134216;28;20565;-71
2022/01/19 03:46:21;;;;;;;33.83;15.48;;;5.60;99.90;;;;;;5134085;28;20497;-71
2022/01/19 03:48:54;;;;;;;38.15;15.15;;;6.20;99.90;;;;;;5116125;28;20047;-71
2022/01/19 03:51:20;;;;;;;35.20;15.23;;;5.30;99.90;;;;;;5134732;28;20051;-71
2022/01/19 03:53:47;;;;;;;38.80;15.35;;;5.40;99.90;;;;;;5116016;28;20184;-71
2022/01/19 03:56:13;;;;;;;35.75;15.60;;;5.20;99.90;;;;;;5115860;28;20040;-71
2022/01/19 03:58:39;;;;;;;32.78;15.77;;;5.30;99.90;;;;;;5137817;27;20055;-71
2022/01/19 04:01:06;;;;;;;31.45;15.63;;;5.60;99.90;;;;;;5137717;27;20051;-71
2022/01/19 04:06:16;;;;;;;35.60;14.80;;;5.70;99.90;;;;;;5137627;27;20043;-71
2022/01/19 04:08:42;;;;;;;35.63;15.55;;;5.10;99.90;;;;;;5138174;27;20046;-72
2022/01/19 04:11:08;;;;;;;31.25;14.40;;;5.40;99.90;;;;;;5119327;27;20051;-71
2022/01/19 04:13:56;;;;;;;29.95;14.50;;;5.60;99.90;;;;;;5137492;27;20094;-71
2022/01/19 04:16:19;;;;;;;31.98;15.55;;;5.30;99.90;;;;;;5137613;27;20055;-71
2022/01/19 04:18:45;;;;;;;35.63;15.18;;;5.20;99.90;;;;;;5137234;27;20394;-71
2022/01/19 04:21:11;;;;;;;31.83;14.85;;;5.40;99.90;;;;;;5119116;27;20047;-71
2022/01/19 04:23:36;;;;;;;35.58;15.07;;;5.20;99.90;;;;;;5137362;27;20471;-71
2022/01/19 04:26:03;;;;;;;34.25;14.85;;;5.40;99.90;;;;;;5138046;27;20414;-72
2022/01/19 04:28:29;;;;;;;30.23;15.30;;;5.60;99.90;;;;;;5137506;27;20451;-72
2022/01/19 04:30:55;;;;;;;36.75;15.30;;;5.80;99.90;;;;;;5102942;27;20130;-70
2022/01/19 04:33:24;;;;;;;36.47;16.25;;;5.50;99.90;;;;;;5137036;27;20043;-71
2022/01/19 04:35:52;;;;;;;38.08;16.63;;;5.40;99.90;;;;;;5137077;27;20103;-71
2022/01/19 05:07:53;;;;;;;40.42;16.95;;;5.00;99.90;;;;;;5136596;27;20054;-71
2022/01/19 05:15:48;;;;;;;35.95;17.48;;;5.20;99.90;;;;;;5136374;27;20051;-71
2022/01/19 05:18:13;;;;;;;36.28;17.40;;;5.10;99.90;;;;;;5117651;27;20088;-71
2022/01/19 05:20:39;;;;;;;31.65;16.05;;;5.70;99.90;;;;;;5136254;27;20059;-71
2022/01/19 05:23:05;;;;;;;35.22;16.55;;;5.40;99.90;;;;;;5118301;27;20079;-71
2022/01/19 05:25:31;;;;;;;35.08;17.15;;;5.50;99.90;;;;;;5135703;27;20112;-71
2022/01/19 05:27:57;;;;;;;37.13;17.08;;;5.30;99.90;;;;;;5135757;27;20092;-71
2022/01/19 05:30:23;;;;;;;37.05;17.73;;;4.90;99.90;;;;;;5135687;27;20130;-73
2022/01/19 05:32:49;;;;;;;34.80;18.13;;;5.10;99.90;;;;;;5135922;27;20163;-71
2022/01/19 05:35:15;;;;;;;33.92;16.60;;;5.00;99.90;;;;;;5136731;27;20114;-71
2022/01/19 05:37:41;;;;;;;35.65;16.73;;;5.60;99.90;;;;;;5135834;27;20103;-70
2022/01/19 05:40:08;;;;;;;34.67;17.05;;;5.20;99.90;;;;;;5135820;27;20051;-71
2022/01/19 05:42:34;;;;;;;39.30;18.30;;;4.80;99.90;;;;;;5135679;27;20046;-71
2022/01/19 05:45:01;;;;;;;35.50;17.35;;;5.80;99.90;;;;;;5118383;27;20452;-71
2022/01/19 05:47:27;;;;;;;33.15;17.02;;;5.10;99.90;;;;;;5117697;27;20130;-71
2022/01/19 05:49:53;;;;;;;32.95;16.80;;;5.40;99.90;;;;;;5136187;27;20070;-71
2022/01/19 05:52:19;;;;;;;37.13;17.77;;;4.80;99.90;;;;;;5136104;27;20043;-72
2022/01/19 05:54:46;;;;;;;37.30;18.58;;;5.10;99.90;;;;;;5117460;27;20051;-71
2022/01/19 05:57:12;;;;;;;36.13;16.70;;;4.80;99.90;;;;;;5135457;27;20054;-71
2022/01/19 05:59:38;;;;;;;32.60;16.70;;;5.20;99.90;;;;;;5135976;27;20179;-71
2022/01/19 06:02:04;;;;;;;36.08;18.30;;;5.40;99.90;;;;;;5117984;27;20126;-71
2022/01/19 06:04:30;;;;;;;36.25;17.63;;;4.90;99.90;;;;;;5117183;27;20051;-72
2022/01/19 06:06:56;;;;;;;34.67;18.05;;;4.80;99.90;;;;;;5116954;27;20050;-72
2022/01/19 06:09:37;;;;;;;36.80;17.05;;;5.20;99.90;;;;;;5135249;27;20043;-72
2022/01/19 06:12:08;;;;;;;31.90;17.13;;;5.10;99.90;;;;;;5117142;27;20505;-72
2022/01/19 06:14:36;;;;;;;31.58;16.33;;;4.80;99.90;;;;;;5117156;27;20087;-72
2022/01/19 06:17:04;;;;;;;35.90;16.70;;;5.40;99.90;;;;;;5135409;27;20421;-71
2022/01/19 06:19:29;;;;;;;36.47;17.33;;;5.10;99.90;;;;;;5134749;27;20059;-72
2022/01/19 06:21:55;;;;;;;42.08;18.50;;;5.40;99.90;;;;;;5116951;27;20066;-72
2022/01/19 06:24:21;;;;;;;33.00;15.68;;;5.80;99.90;;;;;;5116890;27;20466;-70
2022/01/19 06:26:47;;;;;;;35.88;16.23;;;5.00;99.90;;;;;;5134998;27;20039;-70
2022/01/19 06:29:13;;;;;;;32.33;17.30;;;5.20;99.90;;;;;;5135014;27;20054;-72
2022/01/19 06:31:39;;;;;;;40.85;18.42;;;5.10;99.90;;;;;;5134848;27;20039;-71
2022/01/19 06:34:05;;;;;;;34.35;16.83;;;5.20;99.90;;;;;;5117673;27;20470;-72
2022/01/19 06:36:31;;;;;;;36.53;16.35;;;5.70;99.90;;;;;;5134888;27;20039;-71
2022/01/19 06:38:57;;;;;;;34.15;16.67;;;5.50;99.90;;;;;;5134867;27;20047;-72
2022/01/19 06:41:23;;;;;;;33.78;17.23;;;5.30;99.90;;;;;;5116508;27;20050;-72
2022/01/19 06:43:49;;;;;;;36.30;17.50;;;5.70;99.90;;;;;;5134745;27;20054;-72
2022/01/19 06:46:14;;;;;;;40.60;17.08;;;5.00;99.90;;;;;;5134695;27;20035;-71
2022/01/19 06:48:40;;;;;;;35.65;17.15;;;5.30;99.90;;;;;;5134362;27;20047;-71
2022/01/19 06:51:06;;;;;;;32.53;17.27;;;5.00;99.90;;;;;;5134688;28;20049;-71
2022/01/19 06:53:32;;;;;;;35.85;17.48;;;5.40;99.90;;;;;;5134618;28;20043;-72
2022/01/19 06:55:57;;;;;;;34.92;16.80;;;5.30;99.90;;;;;;5099354;28;20078;-71
2022/01/19 06:58:24;;;;;;;41.60;17.45;;;5.40;99.90;;;;;;5134561;28;20039;-72
2022/01/19 07:00:50;;;;;;;38.20;18.13;;;5.00;99.90;;;;;;5134623;28;20039;-72
2022/01/19 07:03:16;;;;;;;32.35;17.05;;;5.10;99.90;;;;;;5116384;28;20142;-71
2022/01/19 07:05:42;;;;;;;36.28;19.10;;;4.90;99.90;;;;;;5116201;28;20130;-72
2022/01/19 07:08:08;;;;;;;39.63;18.60;;;5.00;99.90;;;;;;5116437;28;20081;-71
2022/01/19 07:10:33;;;;;;;35.83;17.73;;;5.20;99.90;;;;;;5134465;28;20039;-71
2022/01/19 07:13:04;;;;;;;36.78;17.45;;;5.50;99.90;;;;;;5135023;28;20039;-71
2022/01/19 07:15:30;;;;;;;37.35;18.70;;;5.10;99.90;;;;;;5116700;28;20051;-71
2022/01/19 07:17:56;;;;;;;38.70;18.67;;;5.30;99.90;;;;;;5116386;28;20078;-71
2022/01/19 07:20:22;;;;;;;40.33;20.17;;;5.60;99.90;;;;;;5135010;28;20130;-71
2022/01/19 07:22:48;;;;;;;42.75;19.55;;;5.10;99.90;;;;;;5134339;28;20550;-72
2022/01/19 07:25:15;;;;;;;35.60;19.48;;;5.20;99.90;;;;;;5134267;28;20172;-72
2022/01/19 07:27:41;;;;;;;39.13;19.60;;;5.10;99.90;;;;;;5134665;28;20054;-71
2022/01/19 07:30:08;;;;;;;40.97;20.42;;;5.40;99.90;;;;;;5134306;28;20043;-71
2022/01/19 07:32:35;;;;;;;39.15;19.50;;;5.20;99.90;;;;;;5118284;27;20525;-71
2022/01/19 07:35:05;;;;;;;40.15;18.23;;;5.20;99.90;;;;;;5138232;27;20046;-71
2022/01/19 07:37:32;;;;;;;40.97;21.02;;;5.40;99.90;;;;;;5138525;27;20387;-72
2022/01/19 07:39:58;;;;;;;41.38;20.40;;;6.10;99.90;;;;;;5138155;27;20043;-71
2022/01/19 07:42:25;;;;;;;38.65;20.27;;;5.60;99.90;;;;;;5138082;27;20053;-71
2022/01/19 07:44:53;;;;;;;37.65;18.77;;;6.10;99.90;;;;;;5140678;27;20051;-72
2022/01/19 07:47:22;;;;;;;39.22;20.25;;;5.20;99.90;;;;;;5103432;27;20050;-72
2022/01/19 07:49:48;;;;;;;37.03;18.42;;;5.30;99.90;;;;;;5120609;27;20046;-71
2022/01/19 07:52:14;;;;;;;41.20;20.05;;;5.30;99.90;;;;;;5137909;27;20055;-72
2022/01/19 07:54:39;;;;;;;34.47;17.65;;;5.40;99.90;;;;;;5138330;27;20107;-70
2022/01/19 07:57:05;;;;;;;37.47;17.80;;;5.10;99.90;;;;;;5137547;27;20103;-72
2022/01/19 07:59:31;;;;;;;35.58;17.85;;;5.30;99.90;;;;;;5119692;27;20043;-71
2022/01/19 08:01:58;;;;;;;32.67;17.85;;;5.40;99.90;;;;;;5137531;27;20092;-72
2022/01/19 08:04:23;;;;;;;36.55;17.70;;;5.70;99.90;;;;;;5137568;27;20042;-71
2022/01/19 08:06:54;;;;;;;38.65;18.25;;;5.50;99.90;;;;;;5137998;27;20130;-71
2022/01/19 08:09:23;;;;;;;35.58;18.23;;;5.70;99.90;;;;;;5137466;27;20047;-71
2022/01/19 08:11:49;;;;;;;35.70;18.35;;;5.20;99.90;;;;;;5137408;27;20088;-71
2022/01/19 08:14:16;;;;;;;30.90;16.63;;;5.50;99.90;;;;;;5137944;27;20090;-72
2022/01/19 08:16:42;;;;;;;37.33;18.02;;;5.30;99.90;;;;;;5137475;27;20047;-71
2022/01/19 08:19:08;;;;;;;34.72;17.92;;;5.40;99.90;;;;;;5137059;27;20055;-72
2022/01/19 08:21:34;;;;;;;31.70;16.63;;;5.40;99.90;;;;;;5137447;27;20047;-72
2022/01/19 08:24:00;;;;;;;32.65;16.83;;;5.30;99.90;;;;;;5137417;27;20043;-70
2022/01/19 08:26:26;;;;;;;31.38;16.80;;;5.00;99.90;;;;;;5118911;27;20062;-71
2022/01/19 08:28:51;;;;;;;33.65;16.30;;;5.70;99.90;;;;;;5137227;27;20047;-71
2022/01/19 08:31:17;;;;;;;32.53;16.70;;;5.10;99.90;;;;;;5137243;27;20082;-72
2022/01/19 08:33:43;;;;;;;28.40;15.98;;;5.10;99.90;;;;;;5137061;27;20046;-71
2022/01/19 08:36:09;;;;;;;28.63;15.77;;;5.30;99.90;;;;;;5137092;27;20043;-71
2022/01/19 08:38:35;;;;;;;29.35;15.73;;;5.40;99.90;;;;;;5137369;27;20078;-71
2022/01/19 08:41:01;;;;;;;29.25;16.33;;;5.80;99.90;;;;;;5136994;27;20142;-72
2022/01/19 08:43:27;;;;;;;31.33;17.27;;;5.00;99.90;;;;;;5136521;27;20494;-72
2022/01/19 08:45:53;;;;;;;29.27;16.23;;;5.30;99.90;;;;;;5136861;27;20046;-72
2022/01/19 08:48:19;;;;;;;29.77;15.82;;;5.70;99.90;;;;;;5118735;27;20046;-72
2022/01/19 08:50:45;;;;;;;31.42;16.35;;;5.50;99.90;;;;;;5136690;27;20091;-71
2022/01/19 08:53:11;;;;;;;29.35;16.52;;;5.10;99.90;;;;;;5137235;27;20130;-73
2022/01/19 08:55:37;;;;;;;31.75;16.48;;;5.30;99.90;;;;;;5136687;27;20039;-73
2022/01/19 08:58:04;;;;;;;33.38;19.13;;;5.10;99.90;;;;;;5118264;27;20050;-73
2022/01/19 09:00:30;;;;;;;31.95;18.02;;;5.20;99.90;;;;;;5136623;27;20051;-74
2022/01/19 09:02:56;;;;;;;31.92;17.63;;;5.40;99.90;;;;;;5136544;27;20054;-75
2022/01/19 09:05:21;;;;;;;30.90;17.45;;;5.00;99.90;;;;;;5118798;27;20047;-74
2022/01/19 09:07:47;;;;;;;30.67;17.27;;;5.00;99.90;;;;;;5137045;27;20368;-74
2022/01/19 09:10:14;;;;;;;32.13;17.83;;;5.70;99.90;;;;;;5136491;27;20047;-74
2022/01/19 09:12:41;;;;;;;31.63;17.50;;;5.20;99.90;;;;;;5118256;27;20058;-74
2022/01/19 09:15:09;;;;;;;33.28;17.85;;;4.90;99.90;;;;;;5118236;27;20062;-75
2022/01/19 09:17:35;;;;;;;30.40;18.23;;;4.80;99.90;;;;;;5136276;27;20055;-74
2022/01/19 09:20:02;;;;;;;34.15;18.73;;;5.40;99.90;;;;;;5136115;27;20053;-74
2022/01/19 09:22:27;;;;;;;30.52;17.13;;;5.50;99.90;;;;;;5137012;27;20112;-74
2022/01/19 09:24:53;;;;;;;29.17;17.42;;;5.80;99.90;;;;;;5135994;27;20467;-73
2022/01/19 09:27:19;;;;;;;30.92;17.77;;;5.60;99.90;;;;;;5136917;27;20047;-73
2022/01/19 09:29:45;;;;;;;32.13;18.30;;;5.00;99.90;;;;;;5136271;27;20181;-74
2022/01/19 09:32:13;;;;;;;31.52;17.70;;;5.70;99.90;;;;;;5117581;27;20391;-72
2022/01/19 09:34:47;;;;;;;33.88;18.98;;;5.70;99.90;;;;;;5117722;27;20103;-75
2022/01/19 09:37:14;;;;;;;32.13;16.92;;;5.30;99.90;;;;;;5136748;27;20047;-73
2022/01/19 09:39:40;;;;;;;33.95;19.23;;;5.20;99.90;;;;;;5135836;27;20049;-73
2022/01/19 09:42:06;;;;;;;30.80;17.35;;;5.00;99.90;;;;;;5136334;27;20491;-72
2022/01/19 09:44:32;;;;;;;30.20;16.83;;;5.00;99.90;;;;;;5117473;27;20047;-71
2022/01/19 09:46:59;;;;;;;31.45;16.58;;;5.30;99.90;;;;;;5116605;27;20055;-71
2022/01/19 09:49:25;;;;;;;30.08;17.38;;;5.20;99.90;;;;;;5134972;27;20047;-71
2022/01/19 09:51:53;;;;;;;29.90;17.05;;;5.90;99.90;;;;;;5134617;27;20130;-70
2022/01/19 09:54:24;;;;;;;37.53;18.65;;;5.20;99.90;;;;;;5133933;27;20047;-71
2022/01/19 09:56:51;;;;;;;30.15;16.60;;;5.30;99.90;;;;;;5134683;27;20039;-71
2022/01/19 09:59:17;;;;;;;28.05;17.33;;;5.60;99.90;;;;;;5134605;27;20460;-71
2022/01/19 10:01:54;;;;;;;30.70;18.02;;;5.30;99.90;;;;;;5134522;27;20172;-72
2022/01/19 10:04:29;;;;;;;28.25;16.55;;;5.40;99.90;;;;;;5117157;27;20058;-72
2022/01/19 10:07:11;;;;;;;28.20;16.35;;;5.30;99.90;;;;;;5135241;27;20051;-72
2022/01/19 10:09:59;;;;;;;29.20;16.92;;;5.40;99.90;;;;;;5134783;27;20087;-72
2022/01/19 10:18:33;;;;;;;27.02;16.67;;;6.00;99.90;;;;;;5134649;27;20054;-71
2022/01/19 10:21:15;;;;;;;31.00;18.65;;;5.60;99.90;;;;;;5115873;27;20145;-72
2022/01/19 10:23:48;;;;;;;28.77;18.00;;;6.10;99.90;;;;;;5134321;27;20114;-72
2022/01/19 10:26:22;;;;;;;32.55;18.05;;;5.60;99.90;;;;;;5134386;27;20043;-72
2022/01/19 10:28:56;;;;;;;;;;;5.30;99.90;;;;;;5134688;27;20084;-72
2022/01/19 10:31:22;;;;;;;31.52;18.15;;;5.30;99.90;;;;;;5133644;27;20437;-72
2022/01/19 10:34:10;;;;;;;32.58;19.80;;;5.90;99.90;;;;;;5133956;27;20134;-72
2022/01/19 10:36:55;;;;;;;34.55;19.55;;;5.20;99.90;;;;;;5115760;28;20047;-71
2022/01/19 10:39:23;;;;;;;35.97;19.95;;;5.40;99.90;;;;;;5133918;27;20051;-72
2022/01/19 10:42:03;;;;;;;35.15;19.98;;;5.50;99.90;;;;;;5134567;27;20054;-72
2022/01/19 10:44:50;;;;;;;31.80;19.75;;;5.20;99.90;;;;;;5133768;27;20046;-72
2022/01/19 10:47:17;;;;;;;34.83;20.35;;;5.90;99.90;;;;;;5133691;27;20097;-72
2022/01/19 10:49:50;;;;;;;34.50;19.73;;;5.30;99.90;;;;;;5134161;27;20051;-72
2022/01/19 10:52:40;;;;;;;35.85;18.88;;;5.20;99.90;;;;;;5134241;28;20058;-72
2022/01/19 10:55:08;;;;;;;33.00;19.58;;;5.20;99.90;;;;;;5133497;28;20043;-72
2022/01/19 10:57:35;;;;;;;30.02;18.58;;;5.10;99.90;;;;;;5133925;28;20047;-72
2022/01/19 11:00:24;;;;;;;32.60;19.42;;;5.50;99.90;;;;;;5133928;28;20126;-72
2022/01/19 11:02:55;;;;;;;34.75;19.45;;;5.30;99.90;;;;;;5133989;28;20051;-72
2022/01/19 11:05:42;;;;;;;35.05;20.23;;;5.30;99.90;;;;;;5134229;27;20368;-71
2022/01/19 11:08:08;;;;;;;35.25;20.17;;;5.40;99.90;;;;;;5137801;27;20054;-71
2022/01/19 11:10:34;;;;;;;36.67;20.35;;;6.30;99.90;;;;;;5138093;27;20047;-72
2022/01/19 11:13:00;;;;;;;33.45;20.50;;;5.60;99.90;;;;;;5138275;27;20438;-71
2022/01/19 11:15:26;;;;;;;33.13;19.33;;;5.50;99.90;;;;;;5138017;27;20135;-72
2022/01/19 11:17:52;;;;;;;34.75;20.58;;;5.70;99.90;;;;;;5086093;27;20122;-72
2022/01/19 11:20:20;;;;;;;36.10;20.25;;;5.40;99.90;;;;;;5137931;27;20051;-71
2022/01/19 11:23:04;;;;;;;36.95;21.08;;;5.30;99.90;;;;;;5137772;27;20136;-74
2022/01/19 11:25:56;;;;;;;36.22;21.08;;;5.30;99.90;;;;;;5120026;27;20084;-72
2022/01/19 11:28:24;;;;;;;36.33;21.92;;;5.70;99.90;;;;;;5138819;27;20066;-71
2022/01/19 11:30:50;;;;;;;37.78;20.98;;;5.80;99.90;;;;;;5137376;27;20046;-69
2022/01/19 11:33:25;;;;;;;42.42;22.23;;;5.50;99.90;;;;;;5137394;27;20039;-71
2022/01/19 11:36:01;;;;;;;38.90;22.15;;;5.30;99.90;;;;;;5137718;27;20116;-71
2022/01/19 11:38:44;;;;;;;41.22;21.67;;;5.30;99.90;;;;;;5119848;27;20487;-72
2022/01/19 11:41:10;;;;;;;37.33;21.48;;;5.60;99.90;;;;;;5119327;27;20491;-72
2022/01/19 11:43:39;;;;;;;33.97;20.67;;;5.60;99.90;;;;;;5136820;27;20050;-71
2022/01/19 11:46:24;;;;;;;37.65;22.58;;;5.50;99.90;;;;;;5137592;27;20078;-72
2022/01/19 11:48:52;;;;;;;40.03;23.08;;;5.20;99.90;;;;;;5138072;27;20042;-72
2022/01/19 11:51:20;;;;;;;41.85;23.83;;;5.90;99.90;;;;;;5137636;27;20039;-72
2022/01/19 11:54:12;;;;;;;40.72;23.15;;;5.80;99.90;;;;;;5137968;27;20039;-72
2022/01/19 11:56:59;;;;;;;42.47;23.83;;;5.40;99.90;;;;;;5137070;27;20039;-71
2022/01/19 11:59:50;;;;;;;42.75;24.33;;;5.60;99.90;;;;;;5137055;27;20050;-72
2022/01/19 12:02:24;;;;;;;39.15;23.88;;;6.10;99.90;;;;;;5123236;27;20055;-70
2022/01/19 12:05:14;;;;;;;44.08;24.55;;;5.50;99.90;;;;;;5137602;27;20129;-72
2022/01/19 12:07:44;;;;;;;41.05;24.90;;;5.60;99.90;;;;;;5137280;27;20043;-72
2022/01/19 12:10:13;;;;;;;43.20;23.80;;;5.40;99.90;;;;;;5137215;27;20498;-72
2022/01/19 12:12:57;;;;;;;44.38;23.20;;;5.40;99.90;;;;;;5137140;27;20051;-71
2022/01/19 12:15:46;;;;;;;40.47;23.65;;;5.40;99.90;;;;;;5136743;27;20046;-71
2022/01/19 12:18:41;;;;;;;43.25;24.73;;;5.50;99.90;;;;;;5135738;27;20089;-70
2022/01/19 12:21:09;;;;;;;47.78;25.58;;;5.40;99.90;;;;;;5136938;27;20059;-71
2022/01/19 12:23:36;;;;;;;44.63;25.48;;;5.50;99.90;;;;;;5137248;27;20039;-71
2022/01/19 12:26:04;;;;;;;44.03;25.27;;;5.40;99.90;;;;;;5136412;27;20083;-71
2022/01/19 12:28:49;;;;;;;50.08;25.98;;;5.80;99.90;;;;;;5136806;27;20130;-71
2022/01/19 12:31:24;;;;;;;42.60;23.98;;;5.50;99.90;;;;;;5118724;27;20065;-71
2022/01/19 12:34:02;;;;;;;43.70;24.40;;;6.30;99.90;;;;;;5136662;27;20053;-70
2022/01/19 12:36:43;;;;;;;47.58;24.77;;;5.90;99.90;;;;;;5136394;27;20134;-70
2022/01/19 12:39:27;;;;;;;45.42;24.88;;;5.50;99.90;;;;;;5136126;27;20410;-70
2022/01/19 12:41:59;;;;;;;46.63;24.13;;;5.80;99.90;;;;;;5118209;27;20065;-71
2022/01/19 12:44:40;;;;;;;46.15;24.10;;;5.20;99.90;;;;;;5137431;27;20340;-71
2022/01/19 12:47:28;;;;;;;45.38;25.23;;;5.50;99.90;;;;;;5117791;27;20038;-71
2022/01/19 12:50:03;;;;;;;49.75;23.95;;;5.50;99.90;;;;;;5136273;27;20050;-70
2022/01/19 12:52:31;;;;;;;45.80;24.48;;;5.50;99.90;;;;;;5117808;27;20130;-69
2022/01/19 12:55:13;;;;;;;45.53;24.67;;;5.80;99.90;;;;;;5136454;27;20489;-70
2022/01/19 12:57:39;;;;;;;48.83;25.35;;;5.90;99.90;;;;;;5118297;27;20047;-70
2022/01/19 13:00:09;;;;;;;48.03;24.85;;;5.40;99.90;;;;;;5136550;27;20043;-70
2022/01/19 13:02:34;;;;;;;42.78;23.40;;;5.40;99.90;;;;;;5137074;27;20058;-70
2022/01/19 13:05:14;;;;;;;48.55;25.65;;;5.50;99.90;;;;;;5118232;27;20387;-70
2022/01/19 13:07:44;;;;;;;50.65;25.25;;;5.50;99.90;;;;;;5119043;27;20046;-70
2022/01/19 13:13:19;;;;;;;42.95;23.25;;;6.40;99.90;;;;;;5090649;27;20440;-71
2022/01/19 13:15:56;;;;;;;44.97;24.27;;;5.90;99.90;;;;;;5136391;27;20090;-70
2022/01/19 13:18:34;;;;;;;44.78;23.70;;;5.90;99.90;;;;;;5118027;27;20051;-71
2022/01/19 13:21:13;;;;;;;45.83;24.83;;;5.50;99.90;;;;;;5114232;28;20492;-71
2022/01/19 13:23:58;;;;;;;45.80;25.45;;;5.60;99.90;;;;;;5115312;28;20549;-71
2022/01/19 13:26:34;;;;;;;50.40;24.90;;;5.80;99.90;;;;;;5115824;28;20097;-69
2022/01/19 13:29:17;;;;;;;50.75;23.85;;;5.70;99.90;;;;;;5115779;28;20090;-71
2022/01/19 13:31:59;;;;;;;49.67;24.73;;;5.60;99.90;;;;;;5115172;28;20054;-70
2022/01/19 13:34:25;;;;;;;48.70;23.20;;;5.70;99.90;;;;;;5115439;28;20039;-70
2022/01/19 13:37:00;;;;;;;44.75;22.40;;;6.30;99.90;;;;;;5114380;28;20116;-70
2022/01/19 13:39:28;;;;;;;47.78;24.15;;;6.10;99.90;;;;;;5115902;28;20044;-70
2022/01/19 13:41:57;;;;;;;41.55;22.30;;;6.50;99.90;;;;;;5114045;28;20046;-70
2022/01/19 13:44:33;;;;;;;45.03;22.98;;;5.90;99.90;;;;;;5115310;28;20047;-70
2022/01/19 13:47:10;;;;;;;46.00;22.77;;;5.70;99.90;;;;;;5115148;28;20044;-70
2022/01/19 13:49:36;;;;;;;45.22;21.67;;;6.10;99.90;;;;;;5114065;28;20077;-71
2022/01/19 13:52:02;;;;;;;44.00;22.73;;;5.80;99.90;;;;;;5114192;28;20066;-70
2022/01/19 13:54:28;;;;;;;42.10;21.23;;;5.70;99.90;;;;;;5113856;28;20475;-70
2022/01/19 13:57:01;;;;;;;44.00;21.20;;;6.30;99.90;;;;;;5114899;28;20051;-71
2022/01/19 13:59:27;;;;;;;39.30;21.33;;;6.00;99.90;;;;;;5114997;28;20050;-71
2022/01/19 14:02:03;;;;;;;35.28;19.58;;;6.30;99.90;;;;;;5114664;28;20039;-71
2022/01/19 14:04:33;;;;;;;37.13;18.92;;;5.80;99.90;;;;;;5114864;28;20044;-70
2022/01/19 14:07:10;;;;;;;40.88;21.38;;;6.00;99.90;;;;;;5114652;28;20047;-70
2022/01/19 14:09:36;;;;;;;38.00;20.35;;;5.80;99.90;;;;;;5114681;28;20044;-72
2022/01/19 14:12:06;;;;;;;36.65;19.83;;;6.20;99.90;;;;;;5113669;28;20096;-69
2022/01/19 14:14:47;;;;;;;40.53;21.15;;;5.70;99.90;;;;;;5114936;28;20403;-69
2022/01/19 14:17:47;;;;;;;42.35;21.23;;;5.70;99.90;;;;;;5114681;28;20140;-69